sensor_id;sensor_type;location;lat;lon;timestamp;P1;durP1;ratioP1;P2;durP2;ratioP2
57323;SDS011;43160;51.008;18.248;2024-02-14T00:02:17;30.30;;;9.40;;
57323;SDS011;43160;51.008;18.248;2024-02-14T00:12:01;32.00;;;9.30;;
57323;SDS011;43160;51.008;18.248;2024-02-14T00:21:43;18.20;;;6.90;;
57323;SDS011;43160;51.008;18.248;2024-02-14T00:31:28;25.50;;;9.50;;
57323;SDS011;43160;51.008;18.248;2024-02-14T00:41:11;23.90;;;7.10;;
57323;SDS011;43160;51.008;18.248;2024-02-14T00:50:55;26.50;;;10.60;;
57323;SDS011;43160;51.008;18.248;2024-02-14T01:00:38;29.10;;;10.70;;
57323;SDS011;43160;51.008;18.248;2024-02-14T01:10:23;27.40;;;8.60;;
57323;SDS011;43160;51.008;18.248;2024-02-14T01:20:08;33.40;;;12.40;;
57323;SDS011;43160;51.008;18.248;2024-02-14T01:29:54;27.40;;;9.70;;
57323;SDS011;43160;51.008;18.248;2024-02-14T01:39:37;38.30;;;10.40;;
57323;SDS011;43160;51.008;18.248;2024-02-14T01:49:25;31.30;;;11.80;;
57323;SDS011;43160;51.008;18.248;2024-02-14T01:59:17;23.20;;;10.00;;
57323;SDS011;43160;51.008;18.248;2024-02-14T02:09:00;36.90;;;9.20;;
57323;SDS011;43160;51.008;18.248;2024-02-14T02:18:45;34.80;;;9.90;;
57323;SDS011;43160;51.008;18.248;2024-02-14T02:28:32;32.10;;;10.30;;
57323;SDS011;43160;51.008;18.248;2024-02-14T02:38:16;28.20;;;9.00;;
57323;SDS011;43160;51.008;18.248;2024-02-14T02:48:01;28.70;;;11.00;;
57323;SDS011;43160;51.008;18.248;2024-02-14T02:57:46;25.40;;;6.70;;
57323;SDS011;43160;51.008;18.248;2024-02-14T03:07:35;27.20;;;10.20;;
57323;SDS011;43160;51.008;18.248;2024-02-14T03:17:23;27.30;;;7.60;;
57323;SDS011;43160;51.008;18.248;2024-02-14T03:27:12;29.10;;;8.60;;
57323;SDS011;43160;51.008;18.248;2024-02-14T03:37:01;24.70;;;10.70;;
57323;SDS011;43160;51.008;18.248;2024-02-14T03:46:48;40.30;;;13.70;;
57323;SDS011;43160;51.008;18.248;2024-02-14T03:56:31;22.30;;;8.90;;
57323;SDS011;43160;51.008;18.248;2024-02-14T04:06:20;25.50;;;9.50;;
57323;SDS011;43160;51.008;18.248;2024-02-14T04:16:04;38.90;;;11.10;;
57323;SDS011;43160;51.008;18.248;2024-02-14T04:25:50;34.20;;;12.20;;
57323;SDS011;43160;51.008;18.248;2024-02-14T04:35:35;25.70;;;9.00;;
57323;SDS011;43160;51.008;18.248;2024-02-14T04:45:18;42.40;;;11.90;;
57323;SDS011;43160;51.008;18.248;2024-02-14T04:55:02;31.10;;;9.90;;
57323;SDS011;43160;51.008;18.248;2024-02-14T05:04:46;27.30;;;9.20;;
57323;SDS011;43160;51.008;18.248;2024-02-14T05:14:32;32.20;;;11.40;;
57323;SDS011;43160;51.008;18.248;2024-02-14T05:24:18;30.30;;;12.40;;
57323;SDS011;43160;51.008;18.248;2024-02-14T05:34:08;30.20;;;10.00;;
57323;SDS011;43160;51.008;18.248;2024-02-14T05:43:53;25.10;;;8.30;;
57323;SDS011;43160;51.008;18.248;2024-02-14T05:53:39;24.00;;;9.90;;
57323;SDS011;43160;51.008;18.248;2024-02-14T06:03:23;22.30;;;8.00;;
57323;SDS011;43160;51.008;18.248;2024-02-14T06:13:06;31.70;;;11.20;;
57323;SDS011;43160;51.008;18.248;2024-02-14T06:22:50;30.50;;;10.70;;
57323;SDS011;43160;51.008;18.248;2024-02-14T06:32:34;22.40;;;8.70;;
57323;SDS011;43160;51.008;18.248;2024-02-14T06:42:18;43.00;;;14.60;;
57323;SDS011;43160;51.008;18.248;2024-02-14T06:52:03;29.20;;;12.10;;
57323;SDS011;43160;51.008;18.248;2024-02-14T07:01:46;32.60;;;11.30;;
57323;SDS011;43160;51.008;18.248;2024-02-14T07:11:29;26.70;;;11.90;;
57323;SDS011;43160;51.008;18.248;2024-02-14T07:21:13;33.30;;;14.40;;
57323;SDS011;43160;51.008;18.248;2024-02-14T07:30:57;39.10;;;16.50;;
57323;SDS011;43160;51.008;18.248;2024-02-14T07:40:42;27.80;;;12.30;;
57323;SDS011;43160;51.008;18.248;2024-02-14T07:50:25;25.60;;;11.20;;
57323;SDS011;43160;51.008;18.248;2024-02-14T08:00:11;25.30;;;7.70;;
57323;SDS011;43160;51.008;18.248;2024-02-14T08:09:57;41.30;;;13.20;;
57323;SDS011;43160;51.008;18.248;2024-02-14T08:19:41;37.00;;;14.50;;
57323;SDS011;43160;51.008;18.248;2024-02-14T08:29:24;35.30;;;14.20;;
57323;SDS011;43160;51.008;18.248;2024-02-14T08:39:08;42.30;;;18.40;;
57323;SDS011;43160;51.008;18.248;2024-02-14T08:48:56;36.10;;;14.80;;
57323;SDS011;43160;51.008;18.248;2024-02-14T08:58:39;25.10;;;11.90;;
57323;SDS011;43160;51.008;18.248;2024-02-14T09:08:23;40.20;;;13.50;;
57323;SDS011;43160;51.008;18.248;2024-02-14T09:18:08;40.40;;;16.60;;
57323;SDS011;43160;51.008;18.248;2024-02-14T09:27:51;49.90;;;19.90;;
57323;SDS011;43160;51.008;18.248;2024-02-14T09:37:36;34.00;;;16.80;;
57323;SDS011;43160;51.008;18.248;2024-02-14T09:47:42;35.70;;;13.40;;
57323;SDS011;43160;51.008;18.248;2024-02-14T09:57:28;26.50;;;9.60;;
57323;SDS011;43160;51.008;18.248;2024-02-14T10:07:11;23.60;;;10.30;;
57323;SDS011;43160;51.008;18.248;2024-02-14T10:17:03;18.40;;;8.70;;
57323;SDS011;43160;51.008;18.248;2024-02-14T10:26:56;25.40;;;7.20;;
57323;SDS011;43160;51.008;18.248;2024-02-14T10:36:49;15.70;;;6.10;;
57323;SDS011;43160;51.008;18.248;2024-02-14T10:46:37;21.60;;;7.40;;
57323;SDS011;43160;51.008;18.248;2024-02-14T10:56:24;12.40;;;4.00;;
57323;SDS011;43160;51.008;18.248;2024-02-14T11:06:16;24.10;;;9.80;;
57323;SDS011;43160;51.008;18.248;2024-02-14T11:16:18;23.10;;;9.40;;
57323;SDS011;43160;51.008;18.248;2024-02-14T11:26:17;30.10;;;6.50;;
57323;SDS011;43160;51.008;18.248;2024-02-14T11:36:08;18.90;;;9.30;;
57323;SDS011;43160;51.008;18.248;2024-02-14T11:45:56;23.20;;;7.60;;
57323;SDS011;43160;51.008;18.248;2024-02-14T11:55:47;16.40;;;6.40;;
57323;SDS011;43160;51.008;18.248;2024-02-14T12:05:36;14.60;;;5.30;;
57323;SDS011;43160;51.008;18.248;2024-02-14T12:15:22;12.20;;;3.80;;
57323;SDS011;43160;51.008;18.248;2024-02-14T12:25:07;12.90;;;4.70;;
57323;SDS011;43160;51.008;18.248;2024-02-14T12:35:01;13.20;;;4.80;;
57323;SDS011;43160;51.008;18.248;2024-02-14T12:44:51;11.30;;;4.00;;
57323;SDS011;43160;51.008;18.248;2024-02-14T12:54:38;11.90;;;4.90;;
57323;SDS011;43160;51.008;18.248;2024-02-14T13:04:22;14.50;;;5.50;;
57323;SDS011;43160;51.008;18.248;2024-02-14T13:14:08;21.00;;;7.90;;
57323;SDS011;43160;51.008;18.248;2024-02-14T13:23:52;8.20;;;2.30;;
57323;SDS011;43160;51.008;18.248;2024-02-14T13:33:38;15.30;;;6.00;;
57323;SDS011;43160;51.008;18.248;2024-02-14T13:43:21;12.40;;;3.80;;
57323;SDS011;43160;51.008;18.248;2024-02-14T13:53:08;13.70;;;5.70;;
57323;SDS011;43160;51.008;18.248;2024-02-14T14:02:51;15.10;;;5.90;;
57323;SDS011;43160;51.008;18.248;2024-02-14T14:12:34;15.30;;;6.10;;
57323;SDS011;43160;51.008;18.248;2024-02-14T14:22:19;18.90;;;4.10;;
57323;SDS011;43160;51.008;18.248;2024-02-14T14:32:07;18.30;;;4.90;;
57323;SDS011;43160;51.008;18.248;2024-02-14T14:41:50;16.80;;;5.70;;
57323;SDS011;43160;51.008;18.248;2024-02-14T14:51:36;18.10;;;8.20;;
57323;SDS011;43160;51.008;18.248;2024-02-14T15:01:24;25.00;;;11.30;;
57323;SDS011;43160;51.008;18.248;2024-02-14T15:11:13;18.50;;;6.40;;
57323;SDS011;43160;51.008;18.248;2024-02-14T15:21:00;16.40;;;5.60;;
57323;SDS011;43160;51.008;18.248;2024-02-14T15:30:55;13.80;;;5.50;;
57323;SDS011;43160;51.008;18.248;2024-02-14T15:40:58;25.20;;;11.80;;
57323;SDS011;43160;51.008;18.248;2024-02-14T15:50:45;12.40;;;5.40;;
57323;SDS011;43160;51.008;18.248;2024-02-14T16:00:30;13.00;;;4.20;;
57323;SDS011;43160;51.008;18.248;2024-02-14T16:10:17;15.40;;;4.90;;
57323;SDS011;43160;51.008;18.248;2024-02-14T16:20:09;12.10;;;4.00;;
57323;SDS011;43160;51.008;18.248;2024-02-14T16:29:56;14.40;;;4.70;;
57323;SDS011;43160;51.008;18.248;2024-02-14T16:39:48;24.00;;;9.30;;
57323;SDS011;43160;51.008;18.248;2024-02-14T16:49:37;23.10;;;8.80;;
57323;SDS011;43160;51.008;18.248;2024-02-14T16:59:33;21.40;;;7.00;;
57323;SDS011;43160;51.008;18.248;2024-02-14T17:09:26;38.90;;;17.60;;
57323;SDS011;43160;51.008;18.248;2024-02-14T17:19:11;17.10;;;7.90;;
57323;SDS011;43160;51.008;18.248;2024-02-14T17:28:55;16.10;;;6.40;;
57323;SDS011;43160;51.008;18.248;2024-02-14T17:38:39;25.90;;;9.30;;
57323;SDS011;43160;51.008;18.248;2024-02-14T17:48:28;25.90;;;8.70;;
57323;SDS011;43160;51.008;18.248;2024-02-14T17:58:12;11.20;;;3.50;;
57323;SDS011;43160;51.008;18.248;2024-02-14T18:07:55;14.10;;;6.30;;
57323;SDS011;43160;51.008;18.248;2024-02-14T18:17:40;21.30;;;6.80;;
57323;SDS011;43160;51.008;18.248;2024-02-14T18:27:24;20.10;;;7.50;;
57323;SDS011;43160;51.008;18.248;2024-02-14T18:37:10;17.60;;;7.40;;
57323;SDS011;43160;51.008;18.248;2024-02-14T18:46:58;25.50;;;9.00;;
57323;SDS011;43160;51.008;18.248;2024-02-14T18:56:41;18.10;;;7.90;;
57323;SDS011;43160;51.008;18.248;2024-02-14T19:06:29;21.10;;;7.50;;
57323;SDS011;43160;51.008;18.248;2024-02-14T19:16:20;19.20;;;7.50;;
57323;SDS011;43160;51.008;18.248;2024-02-14T19:26:05;29.00;;;8.50;;
57323;SDS011;43160;51.008;18.248;2024-02-14T19:35:48;77.80;;;13.00;;
57323;SDS011;43160;51.008;18.248;2024-02-14T19:45:33;28.10;;;11.70;;
57323;SDS011;43160;51.008;18.248;2024-02-14T19:55:20;21.50;;;10.60;;
57323;SDS011;43160;51.008;18.248;2024-02-14T20:05:04;23.40;;;9.40;;
57323;SDS011;43160;51.008;18.248;2024-02-14T20:14:52;30.30;;;10.90;;
57323;SDS011;43160;51.008;18.248;2024-02-14T20:24:38;23.20;;;11.10;;
57323;SDS011;43160;51.008;18.248;2024-02-14T20:34:25;22.80;;;10.70;;
57323;SDS011;43160;51.008;18.248;2024-02-14T20:44:09;30.50;;;12.40;;
57323;SDS011;43160;51.008;18.248;2024-02-14T20:53:59;31.20;;;13.20;;
57323;SDS011;43160;51.008;18.248;2024-02-14T21:03:42;26.10;;;11.50;;
57323;SDS011;43160;51.008;18.248;2024-02-14T21:13:27;26.90;;;11.10;;
57323;SDS011;43160;51.008;18.248;2024-02-14T21:23:10;30.90;;;10.40;;
57323;SDS011;43160;51.008;18.248;2024-02-14T21:32:54;29.10;;;11.60;;
57323;SDS011;43160;51.008;18.248;2024-02-14T21:42:44;40.00;;;13.40;;
57323;SDS011;43160;51.008;18.248;2024-02-14T21:52:31;24.80;;;11.70;;
57323;SDS011;43160;51.008;18.248;2024-02-14T22:02:17;26.80;;;10.30;;
57323;SDS011;43160;51.008;18.248;2024-02-14T22:12:03;37.20;;;12.30;;
57323;SDS011;43160;51.008;18.248;2024-02-14T22:21:53;27.70;;;9.40;;
57323;SDS011;43160;51.008;18.248;2024-02-14T22:31:37;25.90;;;9.30;;
57323;SDS011;43160;51.008;18.248;2024-02-14T22:41:24;25.90;;;10.00;;
57323;SDS011;43160;51.008;18.248;2024-02-14T22:51:10;29.10;;;9.50;;
57323;SDS011;43160;51.008;18.248;2024-02-14T23:08:13;24.60;;;9.10;;
57323;SDS011;43160;51.008;18.248;2024-02-14T23:17:57;27.20;;;10.50;;
57323;SDS011;43160;51.008;18.248;2024-02-14T23:27:40;32.40;;;10.80;;
57323;SDS011;43160;51.008;18.248;2024-02-14T23:37:36;13.40;;;5.50;;
57323;SDS011;43160;51.008;18.248;2024-02-14T23:47:22;25.00;;;10.90;;
57323;SDS011;43160;51.008;18.248;2024-02-14T23:57:06;20.60;;;7.50;;
